Time,TemperatureF,DewpointF,PressureIn,WindDirection,WindDirectionDegrees,WindSpeedMPH,WindSpeedGustMPH,Humidity,HourlyPrecipIn,Conditions,Clouds,dailyrainin,SoftwareType,DateUTC
2013-04-12 00:46:00,44.9,41.0,30.24,NW,315,0.0,4.0,85,0.00,,,0.00,weatherlink.com 1.10,2013-04-12 07:46:00,
2013-04-12 01:16:00,44.2,40.0,30.24,WSW,242,0.0,1.0,86,0.00,,,0.00,weatherlink.com 1.10,2013-04-12 08:16:00,
2013-04-12 01:31:00,43.9,40.0,30.24,WNW,303,5.0,5.0,86,0.00,,,0.00,weatherlink.com 1.10,2013-04-12 08:31:00,
2013-04-12 02:01:00,43.4,39.0,30.24,NW,307,0.0,3.0,85,0.00,,,0.00,weatherlink.com 1.10,2013-04-12 09:01:00,
2013-04-12 02:31:00,43.1,39.0,30.23,WNW,298,0.0,5.0,85,0.00,,,0.00,weatherlink.com 1.10,2013-04-12 09:31:00,
2013-04-12 02:46:00,42.7,39.0,30.23,WNW,290,0.0,5.0,85,0.00,,,0.00,weatherlink.com 1.10,2013-04-12 09:46:00,
2013-04-12 03:01:00,42.1,38.0,30.23,North,1,1.0,2.0,86,0.00,,,0.00,weatherlink.com 1.10,2013-04-12 10:01:00,
2013-04-12 03:16:00,41.6,38.0,30.22,NW,324,0.0,1.0,86,0.00,,,0.00,weatherlink.com 1.10,2013-04-12 10:16:00,
2013-04-12 03:31:00,41.0,37.0,30.21,NW,308,0.0,1.0,87,0.00,,,0.00,weatherlink.com 1.10,2013-04-12 10:31:00,
2013-04-12 03:46:00,40.6,37.0,30.21,NW,314,0.0,1.0,88,0.00,,,0.00,weatherlink.com 1.10,2013-04-12 10:46:00,
2013-04-12 04:17:00,38.5,36.0,30.22,NNW,332,0.0,0.0,90,0.00,,,0.00,weatherlink.com 1.10,2013-04-12 11:17:00,
2013-04-12 04:31:00,38.4,36.0,30.21,NW,319,0.0,1.0,91,0.00,,,0.00,weatherlink.com 1.10,2013-04-12 11:31:00,
2013-04-12 04:46:00,38.9,36.0,30.21,NW,315,0.0,0.0,89,0.00,,,0.00,weatherlink.com 1.10,2013-04-12 11:46:00,
2013-04-12 05:01:00,38.3,36.0,30.21,NW,321,0.0,1.0,90,0.00,,,0.00,weatherlink.com 1.10,2013-04-12 12:01:00,
2013-04-12 05:16:00,38.1,36.0,30.21,NW,322,0.0,0.0,90,0.00,,,0.00,weatherlink.com 1.10,2013-04-12 12:16:00,
2013-04-12 05:32:00,37.1,35.0,30.20,NW,322,0.0,0.0,92,0.00,,,0.00,weatherlink.com 1.10,2013-04-12 12:32:00,
2013-04-12 05:47:00,36.7,35.0,30.19,NW,322,0.0,0.0,93,0.00,,,0.00,weatherlink.com 1.10,2013-04-12 12:47:00,
2013-04-12 06:02:00,36.5,35.0,30.20,NW,321,0.0,0.0,94,0.00,,,0.00,weatherlink.com 1.10,2013-04-12 13:02:00,
2013-04-12 06:17:00,36.0,35.0,30.19,NW,321,0.0,0.0,94,0.00,,,0.00,weatherlink.com 1.10,2013-04-12 13:17:00,
2013-04-12 06:32:00,35.6,34.0,30.19,NW,322,0.0,0.0,94,0.00,,,0.00,weatherlink.com 1.10,2013-04-12 13:32:00,
2013-04-12 06:47:00,35.8,35.0,30.18,NW,322,0.0,0.0,95,0.00,,,0.00,weatherlink.com 1.10,2013-04-12 13:47:00,
2013-04-12 07:02:00,35.7,34.0,30.18,NW,321,0.0,0.0,95,0.00,,,0.00,weatherlink.com 1.10,2013-04-12 14:02:00,
2013-04-12 07:17:00,36.1,35.0,30.18,NW,322,0.0,0.0,96,0.00,,,0.00,weatherlink.com 1.10,2013-04-12 14:17:00,
2013-04-12 07:32:00,36.0,35.0,30.18,NW,322,0.0,0.0,96,0.00,,,0.00,weatherlink.com 1.10,2013-04-12 14:32:00,
2013-04-12 07:47:00,37.5,37.0,30.18,NW,322,0.0,0.0,96,0.00,,,0.00,weatherlink.com 1.10,2013-04-12 14:47:00,
2013-04-12 08:02:00,39.5,38.0,30.17,WNW,288,0.0,1.0,93,0.00,,,0.00,weatherlink.com 1.10,2013-04-12 15:02:00,
2013-04-12 08:17:00,41.6,38.0,30.17,ESE,113,0.0,1.0,88,0.00,,,0.00,weatherlink.com 1.10,2013-04-12 15:17:00,
2013-04-12 08:32:00,43.2,39.0,30.16,ESE,119,0.0,1.0,84,0.00,,,0.00,weatherlink.com 1.10,2013-04-12 15:32:00,
2013-04-12 08:47:00,44.6,40.0,30.16,NNW,341,0.0,2.0,83,0.00,,,0.00,weatherlink.com 1.10,2013-04-12 15:47:00,
2013-04-12 09:02:00,44.7,39.0,30.16,ESE,117,1.0,2.0,81,0.00,,,0.00,weatherlink.com 1.10,2013-04-12 16:02:00,
2013-04-12 09:17:00,45.0,40.0,30.15,SSE,154,0.0,1.0,81,0.00,,,0.00,weatherlink.com 1.10,2013-04-12 16:17:00,
2013-04-12 09:32:00,45.0,40.0,30.15,SSE,153,0.0,2.0,81,0.00,,,0.00,weatherlink.com 1.10,2013-04-12 16:32:00,
2013-04-12 09:47:00,45.2,39.0,30.15,WNW,287,2.0,4.0,80,0.00,,,0.00,weatherlink.com 1.10,2013-04-12 16:47:00,
2013-04-12 10:02:00,46.3,40.0,30.14,South,182,1.0,3.0,79,0.00,,,0.00,weatherlink.com 1.10,2013-04-12 17:02:00,
2013-04-12 10:17:00,47.5,40.0,30.13,SE,141,1.0,4.0,76,0.00,,,0.00,weatherlink.com 1.10,2013-04-12 17:17:00,
2013-04-12 10:32:00,48.9,41.0,30.13,East,79,0.0,2.0,75,0.00,,,0.00,weatherlink.com 1.10,2013-04-12 17:32:00,
2013-04-12 10:47:00,49.3,42.0,30.12,ESE,103,0.0,3.0,75,0.00,,,0.00,weatherlink.com 1.10,2013-04-12 17:47:00,
2013-04-12 11:02:00,49.0,42.0,30.11,SE,141,1.0,6.0,76,0.00,,,0.00,weatherlink.com 1.10,2013-04-12 18:02:00,
2013-04-12 11:17:00,49.0,41.0,30.11,South,180,2.0,5.0,75,0.00,,,0.00,weatherlink.com 1.10,2013-04-12 18:17:00,
2013-04-12 12:32:00,50.8,43.0,30.09,WNW,290,1.0,3.0,74,0.00,,,0.00,weatherlink.com 1.10,2013-04-12 19:32:00,
2013-04-12 12:47:00,50.5,44.0,30.09,SW,222,0.0,4.0,77,0.00,,,0.00,weatherlink.com 1.10,2013-04-12 19:47:00,
2013-04-12 13:02:00,51.2,44.0,30.08,West,260,0.0,2.0,76,0.00,,,0.00,weatherlink.com 1.10,2013-04-12 20:02:00,
2013-04-12 13:18:00,52.2,44.0,30.08,West,269,0.0,3.0,73,0.00,,,0.00,weatherlink.com 1.10,2013-04-12 20:18:00,
2013-04-12 13:33:00,53.2,44.0,30.07,SSE,149,0.0,4.0,72,0.00,,,0.00,weatherlink.com 1.10,2013-04-12 20:33:00,
2013-04-12 13:48:00,54.4,44.0,30.06,SSW,193,0.0,5.0,69,0.00,,,0.00,weatherlink.com 1.10,2013-04-12 20:48:00,
2013-04-12 14:03:00,54.7,44.0,30.06,SW,228,2.0,4.0,68,0.00,,,0.00,weatherlink.com 1.10,2013-04-12 21:03:00,
2013-04-12 14:18:00,55.4,45.0,30.05,ESE,122,0.0,3.0,69,0.00,,,0.00,weatherlink.com 1.10,2013-04-12 21:18:00,
2013-04-12 14:33:00,56.3,45.0,30.05,South,179,1.0,4.0,65,0.00,,,0.00,weatherlink.com 1.10,2013-04-12 21:33:00,
2013-04-12 14:48:00,55.8,45.0,30.05,South,183,1.0,4.0,67,0.00,,,0.00,weatherlink.com 1.10,2013-04-12 21:48:00,
2013-04-12 15:03:00,55.8,45.0,30.04,SW,218,0.0,5.0,67,0.00,,,0.00,weatherlink.com 1.10,2013-04-12 22:03:00,
2013-04-12 15:18:00,55.6,45.0,30.03,SSE,162,2.0,4.0,68,0.00,,,0.00,weatherlink.com 1.10,2013-04-12 22:18:00,
2013-04-12 15:33:00,56.2,45.0,30.03,SSE,167,0.0,4.0,67,0.00,,,0.00,weatherlink.com 1.10,2013-04-12 22:33:00,
2013-04-12 15:48:00,56.7,45.0,30.02,ESE,110,0.0,4.0,66,0.00,,,0.00,weatherlink.com 1.10,2013-04-12 22:48:00,
2013-04-12 16:03:00,57.1,46.0,30.02,SSE,158,0.0,4.0,66,0.00,,,0.00,weatherlink.com 1.10,2013-04-12 23:03:00,
2013-04-12 16:18:00,57.0,46.0,30.00,WNW,287,1.0,5.0,68,0.00,,,0.00,weatherlink.com 1.10,2013-04-12 23:18:00,
2013-04-12 16:33:00,57.6,46.0,30.00,South,184,0.0,5.0,66,0.00,,,0.00,weatherlink.com 1.10,2013-04-12 23:33:00,
2013-04-12 16:48:00,56.7,46.0,30.00,SE,145,2.0,4.0,68,0.00,,,0.00,weatherlink.com 1.10,2013-04-12 23:48:00,
2013-04-12 17:03:00,56.5,46.0,29.99,SE,131,0.0,5.0,69,0.00,,,0.00,weatherlink.com 1.10,2013-04-13 00:03:00,
2013-04-12 17:18:00,56.1,46.0,29.98,SSE,159,0.0,6.0,70,0.00,,,0.00,weatherlink.com 1.10,2013-04-13 00:18:00,
2013-04-12 17:33:00,55.9,46.0,29.98,WSW,257,0.0,4.0,70,0.00,,,0.00,weatherlink.com 1.10,2013-04-13 00:33:00,
2013-04-12 17:48:00,56.2,47.0,29.98,WSW,254,0.0,1.0,71,0.00,,,0.00,weatherlink.com 1.10,2013-04-13 00:48:00,
2013-04-12 18:03:00,56.1,47.0,29.98,West,277,0.0,0.0,71,0.00,,,0.00,weatherlink.com 1.10,2013-04-13 01:03:00,
2013-04-12 18:18:00,55.5,43.0,29.99,WNW,295,0.0,6.0,63,0.00,,,0.00,weatherlink.com 1.10,2013-04-13 01:18:00,
2013-04-12 18:33:00,54.9,43.0,30.00,WSW,248,0.0,6.0,64,0.00,,,0.00,weatherlink.com 1.10,2013-04-13 01:33:00,
2013-04-12 18:48:00,54.3,43.0,30.00,WNW,302,0.0,2.0,65,0.00,,,0.00,weatherlink.com 1.10,2013-04-13 01:48:00,
2013-04-12 19:03:00,53.8,42.0,29.99,ENE,76,0.0,1.0,65,0.00,,,0.00,weatherlink.com 1.10,2013-04-13 02:03:00,
2013-04-12 19:18:00,53.3,41.0,30.00,West,266,1.0,2.0,64,0.00,,,0.00,weatherlink.com 1.10,2013-04-13 02:18:00,
2013-04-12 19:33:00,52.8,42.0,29.99,WSW,255,0.0,4.0,67,0.00,,,0.00,weatherlink.com 1.10,2013-04-13 02:33:00,
2013-04-12 19:48:00,52.0,42.0,29.99,West,264,0.0,3.0,68,0.00,,,0.00,weatherlink.com 1.10,2013-04-13 02:48:00,
2013-04-12 20:03:00,51.4,42.0,30.00,SE,133,1.0,3.0,71,0.00,,,0.00,weatherlink.com 1.10,2013-04-13 03:03:00,
2013-04-12 20:18:00,51.0,43.0,30.00,WSW,250,0.0,2.0,73,0.00,,,0.00,weatherlink.com 1.10,2013-04-13 03:18:00,
2013-04-12 20:33:00,50.8,43.0,30.01,East,92,2.0,4.0,75,0.00,,,0.00,weatherlink.com 1.10,2013-04-13 03:33:00,
2013-04-12 20:48:00,50.6,43.0,30.01,SSW,200,0.0,8.0,76,0.00,,,0.00,weatherlink.com 1.10,2013-04-13 03:48:00,
2013-04-12 21:03:00,49.9,44.0,30.02,WSW,238,1.0,5.0,79,0.00,,,0.00,weatherlink.com 1.10,2013-04-13 04:03:00,
2013-04-12 21:18:00,49.6,44.0,30.01,SSW,208,4.0,6.0,81,0.00,,,0.00,weatherlink.com 1.10,2013-04-13 04:18:00,
2013-04-12 21:33:00,49.1,45.0,30.02,SSW,210,2.0,7.0,84,0.00,,,0.00,weatherlink.com 1.10,2013-04-13 04:33:00,
2013-04-12 21:48:00,48.5,44.0,30.02,ESE,119,0.0,8.0,85,0.00,,,0.00,weatherlink.com 1.10,2013-04-13 04:48:00,
2013-04-12 22:03:00,48.3,44.0,30.01,SSE,153,0.0,5.0,86,0.00,,,0.00,weatherlink.com 1.10,2013-04-13 05:03:00,
2013-04-12 22:18:00,48.3,44.0,30.01,WSW,242,1.0,4.0,86,0.00,,,0.00,weatherlink.com 1.10,2013-04-13 05:18:00,
2013-04-12 22:33:00,48.3,44.0,30.02,WNW,290,3.0,5.0,85,0.00,,,0.00,weatherlink.com 1.10,2013-04-13 05:33:00,
2013-04-12 22:48:00,47.9,45.0,30.03,WNW,287,0.0,8.0,88,0.00,,,0.00,weatherlink.com 1.10,2013-04-13 05:48:00,
2013-04-12 23:03:00,47.0,45.0,30.04,SW,217,0.0,2.0,92,0.01,,,0.01,weatherlink.com 1.10,2013-04-13 06:03:00,
2013-04-12 23:18:00,46.7,45.0,30.04,ESE,114,0.0,2.0,93,0.01,,,0.01,weatherlink.com 1.10,2013-04-13 06:18:00,
2013-04-12 23:33:00,46.3,44.0,30.04,WNW,284,0.0,3.0,93,0.01,,,0.01,weatherlink.com 1.10,2013-04-13 06:33:00,
2013-04-12 23:49:00,45.6,43.0,30.05,NW,315,1.0,7.0,90,0.01,,,0.01,weatherlink.com 1.10,2013-04-13 06:49:00,